Time;durP1;ratioP1;P1;durP2;ratioP2;P2;SDS_P1;SDS_P2;PMS_P1;PMS_P2;Temp;Humidity;BMP_temperature;BMP_pressure;BME280_temperature;BME280_humidity;BME280_pressure;Samples;Min_cycle;Max_cycle;Signal;HPM_P1;HPM_P2
2022/04/27 00:01:19;;;;;;;8.55;6.60;;;;;;;;;;5061481;28;20052;-65
2022/04/27 00:03:45;;;;;;;7.35;4.38;;;;;;;;;;5064683;28;20032;-65
2022/04/27 00:06:11;;;;;;;9.43;5.15;;;;;;;;;;5072768;28;20079;-65
2022/04/27 00:08:38;;;;;;;11.00;5.20;;;;;;;;;;5069542;28;20071;-64
2022/04/27 00:11:04;;;;;;;9.85;6.05;;;;;;;;;;5069989;28;20037;-65
2022/04/27 00:13:30;;;;;;;10.73;6.65;;;;;;;;;;5061643;28;20129;-65
2022/04/27 00:15:56;;;;;;;10.60;6.80;;;;;;;;;;5054778;28;20120;-65
2022/04/27 00:18:22;;;;;;;8.63;6.57;;;;;;;;;;5053334;28;20379;-65
2022/04/27 00:20:48;;;;;;;11.27;6.20;;;;;;;;;;5060950;28;20090;-64
2022/04/27 00:23:14;;;;;;;11.57;6.30;;;;;;;;;;5068821;28;20036;-65
2022/04/27 00:25:40;;;;;;;8.98;6.15;;;;;;;;;;5073463;28;20115;-65
2022/04/27 00:28:06;;;;;;;9.20;6.00;;;;;;;;;;5072524;28;20182;-65
2022/04/27 00:30:32;;;;;;;12.02;6.75;;;;;;;;;;5066064;28;20506;-65
2022/04/27 00:32:58;;;;;;;10.35;6.63;;;;;;;;;;5060734;28;20113;-65
2022/04/27 00:35:24;;;;;;;11.27;6.78;;;;;;;;;;5068622;28;20115;-65
2022/04/27 00:37:50;;;;;;;12.50;6.78;;;;;;;;;;5060228;28;20087;-65
2022/04/27 00:40:16;;;;;;;15.95;6.90;;;;;;;;;;5067266;28;20453;-64
2022/04/27 00:42:42;;;;;;;8.60;6.57;;;;;;;;;;5058473;28;20032;-65
2022/04/27 00:45:08;;;;;;;10.02;6.97;;;;;;;;;;5069072;28;20041;-65
2022/04/27 00:47:34;;;;;;;9.43;6.90;;;;;;;;;;5060453;28;20410;-65
2022/04/27 00:50:03;;;;;;;10.98;6.88;;;;;;;;;;5061909;28;20045;-65
2022/04/27 00:52:33;;;;;;;12.07;6.90;;;;;;;;;;5057696;28;20036;-65
2022/04/27 00:54:59;;;;;;;11.75;7.00;;;;;;;;;;5065327;28;20047;-65
2022/04/27 00:57:26;;;;;;;13.55;7.70;;;;;;;;;;5065355;28;20085;-65
2022/04/27 00:59:52;;;;;;;11.40;7.10;;;;;;;;;;5061155;28;20064;-65
2022/04/27 01:02:19;;;;;;;11.13;7.88;;;;;;;;;;5056447;28;20136;-65
2022/04/27 01:04:45;;;;;;;12.15;7.57;;;;;;;;;;5061070;28;20428;-65
2022/04/27 01:07:11;;;;;;;9.65;7.45;;;;;;;;;;5068643;28;20086;-65
2022/04/27 01:09:38;;;;;;;9.98;7.07;;;;;;;;;;5061388;28;20529;-65
2022/04/27 01:12:04;;;;;;;10.30;7.05;;;;;;;;;;5065030;28;20035;-65
2022/04/27 01:14:41;;;;;;;10.63;7.20;;;;;;;;;;5063932;28;20098;-65
2022/04/27 01:17:07;;;;;;;11.13;7.22;;;;;;;;;;5071477;28;20108;-65
2022/04/27 01:19:33;;;;;;;10.57;6.95;;;;;;;;;;5074330;22;20136;-62
2022/04/27 01:22:00;;;;;;;11.40;7.07;;;;;;;;;;5027947;28;20044;-63
2022/04/27 01:24:26;;;;;;;11.88;7.40;;;;;;;;;;5025613;28;20394;-63
2022/04/27 01:26:53;;;;;;;12.45;7.53;;;;;;;;;;5046112;28;20036;-63
2022/04/27 01:29:19;;;;;;;11.13;7.55;;;;;;;;;;5051381;28;20060;-63
2022/04/27 01:31:45;;;;;;;8.98;6.85;;;;;;;;;;5048142;28;20402;-63
2022/04/27 01:34:12;;;;;;;11.77;7.30;;;;;;;;;;5033971;28;20059;-63
2022/04/27 01:36:39;;;;;;;11.10;7.47;;;;;;;;;;5049535;28;20033;-63
2022/04/27 01:39:06;;;;;;;14.25;7.43;;;;;;;;;;5050197;28;20032;-63
2022/04/27 01:41:32;;;;;;;8.73;6.88;;;;;;;;;;5051585;28;20087;-63
2022/04/27 01:43:58;;;;;;;8.63;7.00;;;;;;;;;;5050824;28;20033;-63
2022/04/27 01:46:25;;;;;;;9.93;6.47;;;;;;;;;;5051618;28;20033;-63
2022/04/27 01:48:51;;;;;;;9.15;6.80;;;;;;;;;;5048655;28;20398;-63
2022/04/27 01:54:16;;;;;;;10.02;6.53;;;;;;;;;;5046976;28;20084;-63
2022/04/27 01:56:45;;;;;;;9.65;6.68;;;;;;;;;;5046323;28;20073;-63
2022/04/27 01:59:12;;;;;;;9.35;7.30;;;;;;;;;;5047346;28;20090;-63
2022/04/27 02:01:38;;;;;;;9.18;6.93;;;;;;;;;;5050132;28;20451;-63
2022/04/27 02:04:04;;;;;;;11.10;7.22;;;;;;;;;;5057666;28;20108;-63
2022/04/27 02:06:30;;;;;;;8.02;7.22;;;;;;;;;;5029866;28;20048;-63
2022/04/27 02:08:56;;;;;;;10.52;7.57;;;;;;;;;;5050176;28;20433;-63
2022/04/27 02:11:26;;;;;;;12.25;7.82;;;;;;;;;;5049476;28;20774;-63
2022/04/27 02:13:54;;;;;;;9.77;7.80;;;;;;;;;;5046979;28;20046;-63
2022/04/27 02:16:30;;;;;;;12.65;8.50;;;;;;;;;;5050677;28;20045;-63
2022/04/27 02:18:56;;;;;;;8.90;7.35;;;;;;;;;;5051014;28;20044;-63
2022/04/27 02:21:23;;;;;;;11.27;8.00;;;;;;;;;;5060665;28;20044;-63
2022/04/27 02:23:52;;;;;;;11.55;8.55;;;;;;;;;;5059656;28;20041;-63
2022/04/27 02:26:18;;;;;;;12.52;8.82;;;;;;;;;;5023857;28;20406;-63
2022/04/27 02:28:44;;;;;;;17.42;8.95;;;;;;;;;;5063894;28;20043;-63
2022/04/27 02:31:10;;;;;;;15.52;8.43;;;;;;;;;;5040136;28;20048;-63
2022/04/27 02:33:36;;;;;;;10.02;7.95;;;;;;;;;;5066025;28;20095;-63
2022/04/27 02:36:02;;;;;;;11.75;8.00;;;;;;;;;;5051902;28;20124;-63
2022/04/27 02:38:28;;;;;;;11.35;8.10;;;;;;;;;;5060428;28;20033;-63
2022/04/27 02:40:54;;;;;;;12.68;8.25;;;;;;;;;;5035652;28;20047;-63
2022/04/27 02:43:21;;;;;;;10.38;7.68;;;;;;;;;;5033543;28;20069;-63
2022/04/27 02:45:47;;;;;;;11.85;7.88;;;;;;;;;;5049911;28;20414;-63
2022/04/27 02:48:13;;;;;;;9.85;8.15;;;;;;;;;;5046505;28;20124;-63
2022/04/27 02:53:24;;;;;;;10.07;7.50;;;;;;;;;;5062658;28;20048;-63
2022/04/27 02:55:50;;;;;;;10.57;7.75;;;;;;;;;;5056649;28;20037;-63
2022/04/27 02:58:16;;;;;;;12.25;8.35;;;;;;;;;;5054134;28;20065;-63
2022/04/27 03:00:44;;;;;;;10.88;7.93;;;;;;;;;;5037733;28;20037;-63
2022/04/27 03:03:10;;;;;;;12.90;8.60;;;;;;;;;;5049943;28;20143;-63
2022/04/27 03:05:36;;;;;;;10.57;7.88;;;;;;;;;;5050085;28;20063;-63
2022/04/27 03:08:03;;;;;;;13.00;8.38;;;;;;;;;;5048996;28;20120;-63
2022/04/27 03:10:29;;;;;;;12.25;8.45;;;;;;;;;;5057478;28;20049;-63
2022/04/27 03:12:54;;;;;;;13.30;9.13;;;;;;;;;;5050613;28;20115;-63
2022/04/27 03:15:22;;;;;;;13.18;9.00;;;;;;;;;;5050955;28;20041;-63
2022/04/27 03:18:16;;;;;;;18.52;9.82;;;;;;;;;;5048510;28;20442;-63
2022/04/27 03:20:34;;;;;;;12.05;8.63;;;;;;;;;;5048551;28;20037;-63
2022/04/27 03:23:00;;;;;;;10.77;8.70;;;;;;;;;;5042937;28;20383;-63
2022/04/27 03:25:26;;;;;;;15.35;9.18;;;;;;;;;;5052356;28;20036;-63
2022/04/27 03:27:52;;;;;;;12.38;9.30;;;;;;;;;;5054172;28;20419;-63
2022/04/27 03:30:18;;;;;;;13.02;9.00;;;;;;;;;;5051320;28;20082;-63
2022/04/27 03:32:44;;;;;;;14.02;8.70;;;;;;;;;;5053116;28;20155;-63
2022/04/27 03:35:10;;;;;;;14.65;9.55;;;;;;;;;;5063719;28;20045;-63
2022/04/27 03:37:37;;;;;;;14.23;8.60;;;;;;;;;;5051732;28;20137;-63
2022/04/27 03:40:04;;;;;;;12.00;9.23;;;;;;;;;;5057247;28;20048;-63
2022/04/27 03:42:30;;;;;;;12.55;8.35;;;;;;;;;;5063853;28;20044;-63
2022/04/27 03:44:55;;;;;;;10.60;7.53;;;;;;;;;;5048936;28;20048;-63
2022/04/27 03:47:21;;;;;;;11.43;8.18;;;;;;;;;;5052930;28;20037;-63
2022/04/27 03:49:47;;;;;;;9.70;7.43;;;;;;;;;;5059116;28;20052;-63
2022/04/27 03:52:13;;;;;;;11.30;7.88;;;;;;;;;;5055609;28;20052;-63
2022/04/27 03:54:39;;;;;;;12.27;8.00;;;;;;;;;;5059452;28;20045;-62
2022/04/27 03:57:05;;;;;;;10.10;8.07;;;;;;;;;;5044277;28;20056;-63
2022/04/27 03:59:31;;;;;;;12.57;8.32;;;;;;;;;;5034846;28;20548;-63
2022/04/27 04:01:57;;;;;;;13.50;7.85;;;;;;;;;;5050328;28;20071;-63
2022/04/27 04:04:24;;;;;;;13.35;8.57;;;;;;;;;;5051067;28;20483;-63
2022/04/27 04:06:50;;;;;;;12.70;8.25;;;;;;;;;;5051133;28;20045;-63
2022/04/27 04:09:16;;;;;;;10.15;8.20;;;;;;;;;;5052770;28;20037;-63
2022/04/27 04:11:42;;;;;;;11.63;8.23;;;;;;;;;;5037376;28;20158;-63
2022/04/27 04:14:08;;;;;;;15.95;8.70;;;;;;;;;;5052343;28;20072;-63
2022/04/27 04:16:34;;;;;;;11.98;8.55;;;;;;;;;;5061234;28;20073;-63
2022/04/27 04:19:00;;;;;;;12.02;9.38;;;;;;;;;;5052853;28;20414;-63
2022/04/27 04:21:26;;;;;;;12.95;8.48;;;;;;;;;;5061199;28;20032;-63
2022/04/27 04:23:52;;;;;;;12.20;9.10;;;;;;;;;;5072029;28;20037;-63
2022/04/27 04:29:03;;;;;;;11.07;8.57;;;;;;;;;;5051275;28;20037;-63
2022/04/27 04:31:29;;;;;;;13.70;9.55;;;;;;;;;;5063592;28;20039;-64
2022/04/27 04:33:55;;;;;;;12.52;8.57;;;;;;;;;;5039322;28;20053;-64
2022/04/27 04:36:21;;;;;;;12.25;9.00;;;;;;;;;;5059485;28;20125;-63
2022/04/27 04:38:47;;;;;;;14.30;8.85;;;;;;;;;;5066189;28;20039;-63
2022/04/27 04:41:13;;;;;;;11.80;8.55;;;;;;;;;;5072694;28;20044;-63
2022/04/27 04:43:39;;;;;;;13.07;9.50;;;;;;;;;;5065930;28;20067;-63
2022/04/27 04:46:05;;;;;;;13.70;8.98;;;;;;;;;;5059443;28;20037;-63
2022/04/27 04:48:31;;;;;;;13.82;9.18;;;;;;;;;;5052150;28;20418;-63
2022/04/27 04:50:57;;;;;;;13.40;9.32;;;;;;;;;;5068006;28;20064;-63
2022/04/27 04:53:23;;;;;;;12.32;9.60;;;;;;;;;;5059828;28;20041;-63
2022/04/27 04:55:49;;;;;;;17.98;9.95;;;;;;;;;;5059085;28;20154;-63
2022/04/27 04:58:15;;;;;;;14.95;9.32;;;;;;;;;;5043894;28;20043;-63
2022/04/27 05:00:41;;;;;;;15.00;9.48;;;;;;;;;;5055719;28;20036;-63
2022/04/27 05:03:07;;;;;;;13.35;9.48;;;;;;;;;;5044352;28;20404;-63
2022/04/27 05:05:34;;;;;;;16.63;10.27;;;;;;;;;;5052824;28;20049;-63
2022/04/27 05:08:00;;;;;;;15.77;10.38;;;;;;;;;;5063552;28;20533;-62
2022/04/27 05:10:26;;;;;;;17.33;10.35;;;;;;;;;;5051530;28;20075;-63
2022/04/27 05:12:52;;;;;;;18.00;10.50;;;;;;;;;;5051497;28;20079;-63
2022/04/27 05:15:18;;;;;;;13.82;9.68;;;;;;;;;;5062235;28;20438;-63
2022/04/27 05:17:44;;;;;;;15.93;10.02;;;;;;;;;;5064176;28;20033;-63
2022/04/27 05:20:11;;;;;;;17.65;10.77;;;;;;;;;;5051013;28;20479;-63
2022/04/27 05:22:38;;;;;;;17.73;10.30;;;;;;;;;;5052210;28;20041;-63
2022/04/27 05:25:05;;;;;;;16.95;10.77;;;;;;;;;;5050897;28;20043;-62
2022/04/27 05:27:31;;;;;;;17.20;10.57;;;;;;;;;;5036018;28;20037;-63
2022/04/27 05:32:45;;;;;;;16.45;10.48;;;;;;;;;;5055947;28;20040;-63
2022/04/27 05:35:11;;;;;;;15.43;10.63;;;;;;;;;;5062357;28;20041;-63
2022/04/27 05:37:38;;;;;;;17.00;11.35;;;;;;;;;;5049173;28;20029;-63
2022/04/27 05:40:04;;;;;;;15.60;11.15;;;;;;;;;;5067850;28;20129;-63
2022/04/27 05:42:31;;;;;;;16.60;11.35;;;;;;;;;;5069265;28;20536;-63
2022/04/27 05:44:57;;;;;;;18.80;11.38;;;;;;;;;;5032115;28;20037;-63
2022/04/27 05:47:23;;;;;;;17.48;10.93;;;;;;;;;;5066516;28;20071;-63
2022/04/27 05:49:52;;;;;;;19.05;11.77;;;;;;;;;;5052767;28;20032;-63
2022/04/27 05:52:20;;;;;;;16.38;10.63;;;;;;;;;;5061079;28;20068;-63
2022/04/27 05:54:46;;;;;;;23.40;11.55;;;;;;;;;;5049467;28;20033;-63
2022/04/27 05:57:12;;;;;;;19.70;11.32;;;;;;;;;;5038165;28;20044;-63
2022/04/27 05:59:38;;;;;;;20.92;12.05;;;;;;;;;;5048575;28;20035;-63
2022/04/27 06:02:04;;;;;;;23.75;11.52;;;;;;;;;;5012378;28;20453;-63
2022/04/27 06:04:30;;;;;;;21.10;11.40;;;;;;;;;;5049523;28;20033;-63
2022/04/27 06:06:56;;;;;;;25.67;11.57;;;;;;;;;;5041511;28;20497;-63
2022/04/27 06:09:22;;;;;;;23.25;12.05;;;;;;;;;;5049304;28;20083;-63
2022/04/27 06:11:48;;;;;;;18.83;11.75;;;;;;;;;;5052930;28;20094;-63
2022/04/27 06:14:14;;;;;;;20.75;11.57;;;;;;;;;;5048957;28;20044;-63
2022/04/27 06:16:40;;;;;;;22.27;11.85;;;;;;;;;;5048206;28;20518;-63
2022/04/27 06:19:06;;;;;;;26.50;12.05;;;;;;;;;;5052086;28;20064;-63
2022/04/27 06:21:32;;;;;;;22.75;11.80;;;;;;;;;;5054956;28;20032;-63
2022/04/27 06:24:00;;;;;;;19.58;11.45;;;;;;;;;;5031194;28;20033;-63
2022/04/27 06:26:26;;;;;;;19.85;11.93;;;;;;;;;;5043280;28;20490;-63
2022/04/27 06:28:52;;;;;;;23.30;11.55;;;;;;;;;;5050085;28;20069;-63
2022/04/27 06:31:19;;;;;;;20.83;11.77;;;;;;;;;;5050573;28;20049;-63
2022/04/27 06:33:45;;;;;;;20.70;12.88;;;;;;;;;;5065332;28;20048;-63
2022/04/27 06:36:11;;;;;;;22.45;12.15;;;;;;;;;;5045014;28;20510;-63
2022/04/27 06:38:37;;;;;;;24.35;11.55;;;;;;;;;;5049634;28;20048;-63
2022/04/27 06:41:03;;;;;;;24.00;12.57;;;;;;;;;;5042244;28;20037;-63
2022/04/27 06:43:29;;;;;;;20.25;12.77;;;;;;;;;;5051115;28;20507;-63
2022/04/27 06:45:56;;;;;;;18.60;11.82;;;;;;;;;;5046739;28;20049;-63
2022/04/27 06:48:22;;;;;;;17.52;11.25;;;;;;;;;;5048535;28;20037;-63
2022/04/27 06:50:47;;;;;;;23.92;13.23;;;;;;;;;;5042010;28;20040;-63
2022/04/27 06:53:13;;;;;;;20.25;11.25;;;;;;;;;;5057366;28;20513;-63
2022/04/27 06:55:39;;;;;;;22.15;10.73;;;;;;;;;;5049929;28;20201;-64
2022/04/27 06:58:05;;;;;;;18.30;11.38;;;;;;;;;;5028761;28;20060;-63
2022/04/27 07:00:31;;;;;;;16.88;10.38;;;;;;;;;;5053244;28;20029;-63
2022/04/27 07:02:58;;;;;;;18.20;10.55;;;;;;;;;;5028241;28;20037;-63
2022/04/27 07:05:26;;;;;;;21.83;10.20;;;;;;;;;;5051038;28;20044;-63
2022/04/27 07:07:52;;;;;;;17.48;10.15;;;;;;;;;;5053249;28;20041;-63
2022/04/27 07:10:19;;;;;;;15.50;10.48;;;;;;;;;;5045437;28;20121;-63
2022/04/27 07:12:47;;;;;;;17.55;10.43;;;;;;;;;;5038753;28;20079;-63
2022/04/27 07:15:13;;;;;;;12.15;8.82;;;;;;;;;;5032739;28;20118;-63
2022/04/27 07:17:39;;;;;;;15.02;9.38;;;;;;;;;;5011786;28;20041;-63
2022/04/27 07:20:05;;;;;;;14.18;9.38;;;;;;;;;;5041938;22;20052;-65
2022/04/27 07:22:31;;;;;;;16.08;10.18;;;;;;;;;;5038995;28;20446;-66
2022/04/27 07:24:57;;;;;;;15.90;9.13;;;;;;;;;;5046174;28;20037;-66
2022/04/27 07:27:23;;;;;;;15.15;8.38;;;;;;;;;;5051927;28;20055;-66
2022/04/27 07:29:49;;;;;;;14.25;8.65;;;;;;;;;;5051186;28;20041;-65
2022/04/27 07:32:15;;;;;;;15.35;8.50;;;;;;;;;;5031390;28;20048;-66
2022/04/27 07:34:41;;;;;;;18.48;8.45;;;;;;;;;;5047095;28;20090;-66
2022/04/27 07:37:07;;;;;;;15.88;8.50;;;;;;;;;;5048988;28;20077;-66
2022/04/27 07:39:33;;;;;;;14.95;8.23;;;;;;;;;;5052112;28;20041;-66
2022/04/27 07:41:59;;;;;;;15.18;8.02;;;;;;;;;;5048883;28;20025;-66
2022/04/27 07:44:25;;;;;;;9.75;6.97;;;;;;;;;;5051487;28;20490;-66
2022/04/27 07:46:51;;;;;;;15.32;6.65;;;;;;;;;;5059409;28;20375;-66
2022/04/27 07:49:21;;;;;;;13.48;6.90;;;;;;;;;;5053205;28;20033;-66
2022/04/27 07:51:48;;;;;;;13.25;7.38;;;;;;;;;;5050393;28;20044;-66
2022/04/27 07:54:14;;;;;;;10.88;6.88;;;;;;;;;;5052537;28;20048;-66
2022/04/27 07:56:40;;;;;;;10.55;6.35;;;;;;;;;;5050482;28;20541;-66
2022/04/27 07:59:06;;;;;;;10.63;6.72;;;;;;;;;;5048026;28;20044;-66
2022/04/27 08:01:32;;;;;;;10.75;6.65;;;;;;;;;;5047141;28;20029;-67
2022/04/27 08:03:58;;;;;;;14.60;7.18;;;;;;;;;;5046772;28;20052;-66
2022/04/27 08:06:24;;;;;;;11.88;7.13;;;;;;;;;;5050075;28;20039;-66
2022/04/27 08:08:50;;;;;;;10.70;7.00;;;;;;;;;;5048240;28;20032;-66
2022/04/27 08:11:16;;;;;;;10.27;6.72;;;;;;;;;;5044021;28;20438;-64
2022/04/27 08:13:43;;;;;;;11.25;5.93;;;;;;;;;;5051352;28;20045;-64
2022/04/27 08:16:12;;;;;;;11.55;6.90;;;;;;;;;;5050751;28;20044;-64
2022/04/27 08:18:38;;;;;;;11.60;7.00;;;;;;;;;;5050377;28;20490;-64
2022/04/27 08:21:14;;;;;;;9.05;6.13;;;;;;;;;;5044673;28;20033;-64
2022/04/27 08:23:40;;;;;;;12.57;6.25;;;;;;;;;;5046410;28;20091;-64
2022/04/27 08:26:07;;;;;;;6.93;6.13;;;;;;;;;;5061142;28;20041;-64
2022/04/27 08:28:33;;;;;;;15.55;7.13;;;;;;;;;;5048177;28;20047;-64
2022/04/27 08:30:59;;;;;;;10.52;6.53;;;;;;;;;;5052083;28;20039;-64
2022/04/27 08:33:25;;;;;;;6.60;4.50;;;;;;;;;;5051093;28;20418;-64
2022/04/27 08:35:55;;;;;;;4.20;2.80;;;;;;;;;;5052313;28;20106;-64
2022/04/27 08:38:21;;;;;;;5.80;3.10;;;;;;;;;;5051379;28;20048;-64
2022/04/27 08:40:47;;;;;;;5.32;3.40;;;;;;;;;;5049812;28;20037;-63
2022/04/27 08:43:14;;;;;;;5.40;2.97;;;;;;;;;;5030715;28;20029;-63
2022/04/27 08:45:41;;;;;;;7.53;2.45;;;;;;;;;;5045185;28;20041;-64
2022/04/27 08:48:07;;;;;;;7.05;2.75;;;;;;;;;;5059627;28;20041;-64
2022/04/27 08:50:33;;;;;;;4.88;2.83;;;;;;;;;;5051010;28;20049;-64
2022/04/27 08:53:00;;;;;;;4.60;2.45;;;;;;;;;;5050584;28;20037;-64
2022/04/27 08:55:27;;;;;;;4.90;2.88;;;;;;;;;;5043824;28;20041;-64
2022/04/27 08:57:54;;;;;;;7.10;3.50;;;;;;;;;;5047350;28;20517;-64
2022/04/27 09:00:20;;;;;;;4.95;2.78;;;;;;;;;;5047593;28;20115;-64
2022/04/27 09:02:48;;;;;;;4.68;3.03;;;;;;;;;;5049298;28;20402;-64
2022/04/27 09:05:14;;;;;;;5.90;2.70;;;;;;;;;;5048378;28;20051;-64
2022/04/27 09:07:40;;;;;;;7.47;3.15;;;;;;;;;;5042632;28;20119;-64
2022/04/27 09:10:12;;;;;;;4.75;2.80;;;;;;;;;;5043636;28;20045;-64
2022/04/27 09:12:46;;;;;;;6.30;3.08;;;;;;;;;;5044059;28;20490;-64
2022/04/27 09:15:12;;;;;;;6.63;2.67;;;;;;;;;;5041071;28;20084;-64
2022/04/27 09:23:21;;;;;;;5.85;2.67;;;;;;;;;;5042937;28;20037;-65
2022/04/27 09:25:47;;;;;;;6.35;2.60;;;;;;;;;;5041529;28;20410;-65
2022/04/27 09:28:13;;;;;;;6.15;2.70;;;;;;;;;;5041185;28;20037;-65
2022/04/27 09:30:39;;;;;;;3.97;2.53;;;;;;;;;;5042401;28;20051;-65
2022/04/27 09:33:05;;;;;;;4.97;2.45;;;;;;;;;;5040850;28;20045;-65
2022/04/27 09:35:35;;;;;;;4.68;3.00;;;;;;;;;;5048312;28;20094;-65
2022/04/27 09:38:18;;;;;;;5.20;2.65;;;;;;;;;;5042149;28;20452;-65
2022/04/27 09:40:48;;;;;;;6.20;2.40;;;;;;;;;;5044301;28;20205;-65
2022/04/27 09:43:15;;;;;;;7.82;2.40;;;;;;;;;;5037801;28;21621;-65
2022/04/27 09:45:44;;;;;;;6.00;2.40;;;;;;;;;;5043157;28;20399;-65
2022/04/27 09:48:17;;;;;;;6.40;2.63;;;;;;;;;;5038477;28;20041;-64
2022/04/27 09:50:50;;;;;;;7.93;3.53;;;;;;;;;;5034355;28;20061;-64
2022/04/27 09:53:17;;;;;;;5.47;2.50;;;;;;;;;;5030177;28;20559;-64
2022/04/27 09:55:50;;;;;;;14.32;5.07;;;;;;;;;;5030236;28;20187;-65
2022/04/27 09:58:18;;;;;;;4.80;2.63;;;;;;;;;;5010585;28;20284;-64
2022/04/27 10:00:45;;;;;;;6.45;2.90;;;;;;;;;;5026946;28;20541;-65
2022/04/27 10:03:15;;;;;;;3.03;2.65;;;;;;;;;;5027036;28;20072;-65
2022/04/27 10:05:42;;;;;;;6.07;2.67;;;;;;;;;;5029781;28;20514;-65
2022/04/27 10:08:09;;;;;;;4.88;2.15;;;;;;;;;;5033462;28;20037;-64
2022/04/27 10:10:35;;;;;;;5.78;2.25;;;;;;;;;;5043302;28;20498;-64
2022/04/27 10:13:02;;;;;;;3.72;2.38;;;;;;;;;;5046619;28;20047;-65
2022/04/27 10:15:30;;;;;;;5.88;2.50;;;;;;;;;;5042690;28;20041;-64
2022/04/27 10:17:56;;;;;;;3.33;2.25;;;;;;;;;;5040356;28;20037;-65
2022/04/27 10:20:34;;;;;;;4.82;2.40;;;;;;;;;;5045748;28;20483;-65
2022/04/27 10:23:16;;;;;;;4.38;2.35;;;;;;;;;;5045867;28;20045;-65
2022/04/27 10:26:02;;;;;;;5.75;1.98;;;;;;;;;;5036866;28;20175;-64
2022/04/27 10:28:29;;;;;;;4.80;2.80;;;;;;;;;;5045723;28;20041;-65
2022/04/27 10:30:58;;;;;;;5.22;2.50;;;;;;;;;;5048271;28;20423;-65
2022/04/27 10:33:40;;;;;;;6.70;2.72;;;;;;;;;;5043205;28;20102;-65
2022/04/27 10:36:25;;;;;;;5.72;2.75;;;;;;;;;;5044083;28;20143;-65
2022/04/27 10:39:20;;;;;;;4.10;2.53;;;;;;;;;;5042186;28;20068;-65
2022/04/27 10:41:54;;;;;;;4.57;2.55;;;;;;;;;;5029695;28;20049;-65
2022/04/27 10:44:20;;;;;;;5.35;2.33;;;;;;;;;;5046602;28;20068;-65
2022/04/27 10:46:46;;;;;;;6.30;2.65;;;;;;;;;;5054834;28;20095;-65
2022/04/27 10:49:24;;;;;;;4.95;2.30;;;;;;;;;;5053122;28;20032;-65
2022/04/27 10:52:06;;;;;;;4.32;2.30;;;;;;;;;;5054284;28;20114;-65
2022/04/27 10:54:33;;;;;;;5.53;2.42;;;;;;;;;;5050182;28;20033;-64
2022/04/27 10:57:18;;;;;;;3.92;1.90;;;;;;;;;;5046580;28;20045;-65
2022/04/27 10:59:48;;;;;;;4.90;2.40;;;;;;;;;;5046947;28;20482;-65
2022/04/27 11:02:35;;;;;;;4.75;2.20;;;;;;;;;;5053800;28;20119;-65
2022/04/27 11:05:05;;;;;;;14.23;2.75;;;;;;;;;;5049509;28;20072;-65
2022/04/27 11:07:51;;;;;;;8.93;2.58;;;;;;;;;;5049908;28;20037;-64
2022/04/27 11:10:17;;;;;;;3.97;2.47;;;;;;;;;;5044059;28;20033;-65
2022/04/27 11:12:44;;;;;;;5.47;2.17;;;;;;;;;;5046506;28;20040;-65
2022/04/27 11:15:11;;;;;;;4.90;2.05;;;;;;;;;;5049955;28;20040;-65
2022/04/27 11:17:37;;;;;;;4.45;1.90;;;;;;;;;;5045001;28;20491;-64
2022/04/27 11:20:03;;;;;;;5.68;2.22;;;;;;;;;;5048858;28;20048;-65
2022/04/27 11:22:39;;;;;;;7.10;2.80;;;;;;;;;;5053615;28;20029;-65
2022/04/27 11:25:08;;;;;;;6.35;2.35;;;;;;;;;;5050620;28;20124;-65
2022/04/27 11:27:35;;;;;;;4.20;2.10;;;;;;;;;;5031354;28;20037;-65
2022/04/27 11:30:02;;;;;;;5.07;2.40;;;;;;;;;;5053778;28;20491;-65
2022/04/27 11:32:28;;;;;;;3.60;2.15;;;;;;;;;;5053280;28;20032;-65
2022/04/27 11:34:54;;;;;;;4.50;2.33;;;;;;;;;;5055132;28;20069;-65
2022/04/27 11:37:21;;;;;;;5.05;2.53;;;;;;;;;;5053539;28;20041;-65
2022/04/27 11:39:47;;;;;;;6.32;2.05;;;;;;;;;;5051757;28;20372;-65
2022/04/27 11:42:16;;;;;;;7.03;2.50;;;;;;;;;;5052923;28;20037;-65
2022/04/27 11:44:42;;;;;;;7.88;2.60;;;;;;;;;;5051482;28;20033;-65
2022/04/27 11:47:27;;;;;;;6.82;2.20;;;;;;;;;;5052927;28;20033;-65
2022/04/27 11:50:00;;;;;;;5.72;2.65;;;;;;;;;;5047560;28;20119;-65
2022/04/27 11:52:26;;;;;;;5.07;2.30;;;;;;;;;;5049552;28;20536;-65
2022/04/27 11:54:53;;;;;;;3.53;2.20;;;;;;;;;;5052895;28;20071;-65
2022/04/27 11:57:25;;;;;;;4.75;2.33;;;;;;;;;;5049803;28;21714;-65
2022/04/27 11:59:51;;;;;;;6.43;2.63;;;;;;;;;;5048736;28;20114;-65
2022/04/27 12:02:25;;;;;;;7.25;2.50;;;;;;;;;;5053751;28;20033;-65
2022/04/27 12:04:51;;;;;;;7.95;2.50;;;;;;;;;;5056465;28;20036;-65
2022/04/27 12:07:19;;;;;;;5.85;2.15;;;;;;;;;;5051721;28;20565;-65
2022/04/27 12:10:01;;;;;;;7.32;2.47;;;;;;;;;;5034943;28;20056;-65
2022/04/27 12:12:27;;;;;;;5.78;2.60;;;;;;;;;;5051402;28;20045;-65
2022/04/27 12:14:54;;;;;;;6.75;2.60;;;;;;;;;;5046295;28;20047;-65
2022/04/27 12:17:50;;;;;;;4.80;2.45;;;;;;;;;;5041886;28;20136;-65
2022/04/27 12:20:24;;;;;;;5.10;2.47;;;;;;;;;;5016518;28;20529;-65
2022/04/27 12:22:53;;;;;;;9.85;2.63;;;;;;;;;;5043197;28;20063;-65
2022/04/27 12:25:20;;;;;;;6.30;2.88;;;;;;;;;;5043167;28;20040;-65
2022/04/27 12:27:47;;;;;;;6.50;2.35;;;;;;;;;;5049776;28;20037;-65
2022/04/27 12:30:18;;;;;;;5.82;2.40;;;;;;;;;;5051687;28;20090;-65
2022/04/27 12:32:44;;;;;;;7.70;2.47;;;;;;;;;;5050358;28;20036;-66
2022/04/27 12:37:55;;;;;;;7.47;3.05;;;;;;;;;;5050737;28;20041;-65
2022/04/27 12:40:21;;;;;;;6.70;2.80;;;;;;;;;;5061144;28;20093;-65
2022/04/27 12:43:09;;;;;;;4.53;2.58;;;;;;;;;;5048057;28;20029;-65
2022/04/27 12:45:36;;;;;;;9.68;3.00;;;;;;;;;;5046393;28;20075;-65
2022/04/27 12:48:03;;;;;;;5.68;3.00;;;;;;;;;;5051751;28;20056;-65
2022/04/27 12:50:29;;;;;;;5.22;2.80;;;;;;;;;;5046839;28;20583;-65
2022/04/27 12:53:16;;;;;;;5.00;2.80;;;;;;;;;;5053870;28;20045;-65
2022/04/27 12:55:42;;;;;;;7.93;2.90;;;;;;;;;;5041732;28;20055;-65
2022/04/27 12:58:07;;;;;;;7.72;2.78;;;;;;;;;;5046949;28;20041;-65
2022/04/27 13:00:45;;;;;;;13.82;2.90;;;;;;;;;;5044522;28;20037;-65
2022/04/27 13:03:12;;;;;;;7.30;2.75;;;;;;;;;;5040889;28;20399;-65
2022/04/27 13:05:40;;;;;;;5.20;2.60;;;;;;;;;;5043272;28;20121;-65
2022/04/27 13:08:07;;;;;;;6.22;2.75;;;;;;;;;;5051620;28;20036;-65
2022/04/27 13:13:18;;;;;;;6.65;2.47;;;;;;;;;;5043149;28;20080;-65
2022/04/27 13:15:49;;;;;;;9.23;2.80;;;;;;;;;;5044707;28;20044;-65
2022/04/27 13:18:15;;;;;;;4.38;2.40;;;;;;;;;;5045239;28;20069;-65
2022/04/27 13:20:41;;;;;;;6.95;2.75;;;;;;;;;;5062468;22;20040;-63
2022/04/27 13:23:08;;;;;;;9.27;3.20;;;;;;;;;;5041716;28;20037;-63
2022/04/27 13:25:34;;;;;;;8.05;2.80;;;;;;;;;;5040854;28;20041;-63
2022/04/27 13:28:01;;;;;;;5.85;2.90;;;;;;;;;;5045364;28;20219;-63
2022/04/27 13:30:27;;;;;;;16.95;3.60;;;;;;;;;;5049199;28;20041;-63
2022/04/27 13:32:53;;;;;;;5.78;3.17;;;;;;;;;;5047168;28;20043;-63
2022/04/27 13:35:19;;;;;;;9.15;3.25;;;;;;;;;;5038074;28;20049;-64
2022/04/27 13:37:45;;;;;;;4.70;2.80;;;;;;;;;;5043513;28;20122;-63
2022/04/27 13:40:11;;;;;;;11.40;3.30;;;;;;;;;;5044749;28;20037;-63
2022/04/27 13:42:40;;;;;;;6.47;3.00;;;;;;;;;;5042883;28;20289;-63
2022/04/27 13:45:07;;;;;;;5.63;3.35;;;;;;;;;;5030797;28;20033;-63
2022/04/27 13:47:34;;;;;;;7.78;3.17;;;;;;;;;;5040644;28;20033;-63
2022/04/27 13:50:00;;;;;;;9.88;3.20;;;;;;;;;;5049274;28;20044;-63
2022/04/27 13:52:26;;;;;;;8.65;3.30;;;;;;;;;;5045583;28;21708;-63
2022/04/27 13:54:52;;;;;;;6.68;3.17;;;;;;;;;;5046185;28;20037;-63
2022/04/27 13:57:18;;;;;;;6.63;3.20;;;;;;;;;;5041052;28;20040;-63
2022/04/27 13:59:44;;;;;;;9.55;3.22;;;;;;;;;;5042620;28;20213;-63
2022/04/27 14:02:12;;;;;;;5.47;2.90;;;;;;;;;;5039428;28;20403;-63
2022/04/27 14:04:38;;;;;;;5.70;3.30;;;;;;;;;;5043299;28;20041;-64
2022/04/27 14:07:04;;;;;;;7.90;3.10;;;;;;;;;;5046724;28;20047;-64
2022/04/27 14:09:30;;;;;;;6.30;3.40;;;;;;;;;;5030708;28;20103;-63
2022/04/27 14:14:41;;;;;;;8.10;3.30;;;;;;;;;;5045746;28;20041;-64
2022/04/27 14:19:52;;;;;;;7.20;3.33;;;;;;;;;;5038263;28;20511;-63
2022/04/27 14:22:18;;;;;;;5.53;3.50;;;;;;;;;;5047666;28;20065;-63
2022/04/27 14:24:44;;;;;;;8.50;3.70;;;;;;;;;;5031228;28;20483;-63
2022/04/27 14:27:10;;;;;;;6.40;3.20;;;;;;;;;;5020825;28;20041;-63
2022/04/27 14:29:36;;;;;;;4.88;3.00;;;;;;;;;;5044562;28;20041;-63
2022/04/27 14:32:02;;;;;;;7.03;3.10;;;;;;;;;;5046359;28;20057;-64
2022/04/27 14:34:30;;;;;;;5.88;3.35;;;;;;;;;;5043965;28;20128;-64
2022/04/27 14:36:56;;;;;;;9.23;3.78;;;;;;;;;;5043768;28;20048;-64
2022/04/27 14:39:22;;;;;;;8.63;3.55;;;;;;;;;;5036402;28;20041;-64
2022/04/27 14:41:54;;;;;;;6.78;3.53;;;;;;;;;;5044560;28;20890;-63
2022/04/27 14:44:20;;;;;;;9.88;3.47;;;;;;;;;;5045531;28;20033;-64
2022/04/27 14:46:48;;;;;;;7.50;3.47;;;;;;;;;;5010295;28;20041;-63
2022/04/27 14:49:14;;;;;;;8.25;3.28;;;;;;;;;;5047447;28;22087;-64
2022/04/27 14:51:41;;;;;;;9.27;3.30;;;;;;;;;;5048095;28;20049;-64
2022/04/27 14:54:07;;;;;;;9.88;3.53;;;;;;;;;;5027808;28;20072;-64
2022/04/27 14:56:33;;;;;;;8.90;3.33;;;;;;;;;;5041263;28;20079;-64
2022/04/27 14:58:59;;;;;;;5.43;3.10;;;;;;;;;;5040816;28;20041;-63
2022/04/27 15:01:25;;;;;;;6.63;3.20;;;;;;;;;;5048614;28;20041;-63
2022/04/27 15:03:51;;;;;;;6.55;3.25;;;;;;;;;;5046996;28;20065;-63